createdAt,value
2022-09-26T00:00:36.271Z,96538.50
2022-09-26T00:03:02.755Z,96530.53
2022-09-26T00:05:33.176Z,96540.06
2022-09-26T00:08:00.026Z,96539.22
2022-09-26T00:10:26.426Z,96541.88
2022-09-26T00:12:53.301Z,96534.34
2022-09-26T00:15:19.647Z,96543.66
2022-09-26T00:17:46.060Z,96540.31
2022-09-26T00:20:12.421Z,96544.53
2022-09-26T00:22:38.774Z,96542.53
2022-09-26T00:25:05.456Z,96535.84
2022-09-26T00:27:32.068Z,96534.56
2022-09-26T00:29:58.440Z,96536.38
2022-09-26T00:32:24.838Z,96547.94
2022-09-26T00:34:51.209Z,96546.66
2022-09-26T00:37:17.626Z,96536.06
2022-09-26T00:39:43.954Z,96536.31
2022-09-26T00:42:15.014Z,96524.72
2022-09-26T00:44:49.906Z,96508.50
2022-09-26T00:47:25.554Z,96522.06
2022-09-26T00:49:58.503Z,96519.34
2022-09-26T00:52:30.066Z,96514.91
2022-09-26T00:54:59.735Z,96511.22
2022-09-26T00:57:32.847Z,96492.94
2022-09-26T01:00:05.086Z,96501.69
2022-09-26T01:02:31.569Z,96499.00
2022-09-26T01:04:59.518Z,96491.22
2022-09-26T01:07:28.215Z,96491.59
2022-09-26T01:09:55.744Z,96487.06
2022-09-26T01:12:22.892Z,96492.81
2022-09-26T01:14:52.569Z,96484.66
2022-09-26T01:17:19.941Z,96488.78
2022-09-26T01:20:07.950Z,96475.91
2022-09-26T01:23:14.197Z,96460.59
2022-09-26T01:26:08.361Z,96450.63
2022-09-26T01:29:03.525Z,96455.19
2022-09-26T01:32:06.593Z,96444.84
2022-09-26T01:34:59.976Z,96440.41
2022-09-26T01:37:51.683Z,96436.91
2022-09-26T01:40:27.272Z,96436.16
2022-09-26T01:43:20.052Z,96425.31
2022-09-26T01:45:54.143Z,96424.41
2022-09-26T01:48:30.874Z,96425.22
2022-09-26T01:51:19.576Z,96423.16
2022-09-26T01:53:56.881Z,96422.75
2022-09-26T01:56:27.920Z,96429.53
2022-09-26T01:59:04.699Z,96420.38
2022-09-26T02:01:37.081Z,96409.63
2022-09-26T02:04:10.542Z,96407.19
2022-09-26T02:06:52.380Z,96413.72
2022-09-26T02:09:43.317Z,96402.75
2022-09-26T02:12:14.631Z,96402.66
2022-09-26T02:14:43.229Z,96391.28
2022-09-26T02:17:25.094Z,96387.63
2022-09-26T02:20:05.838Z,96385.53
2022-09-26T02:22:34.421Z,96380.66
2022-09-26T02:25:01.958Z,96381.63
2022-09-26T02:27:28.633Z,96373.41
2022-09-26T02:29:55.407Z,96369.84
2022-09-26T02:32:30.480Z,96370.75
2022-09-26T02:34:58.409Z,96358.03
2022-09-26T02:37:26.049Z,96363.94
2022-09-26T02:39:53.319Z,96355.53
2022-09-26T02:42:23.244Z,96362.06
2022-09-26T02:44:55.780Z,96343.06
2022-09-26T02:47:41.411Z,96332.97
2022-09-26T02:50:29.861Z,96341.03
2022-09-26T02:53:20.166Z,96336.19
2022-09-26T02:56:16.433Z,96329.28
2022-09-26T02:58:59.636Z,96337.28
2022-09-26T03:01:31.906Z,96333.25
2022-09-26T03:04:22.847Z,96357.06
2022-09-26T03:06:53.235Z,96360.56
2022-09-26T03:09:22.329Z,96348.16
2022-09-26T03:11:50.434Z,96345.75
2022-09-26T03:14:18.973Z,96350.88
2022-09-26T03:16:46.188Z,96350.63
2022-09-26T03:19:23.689Z,96351.91
2022-09-26T03:21:50.084Z,96356.50
2022-09-26T03:24:17.389Z,96352.56
2022-09-26T03:26:44.315Z,96350.75
2022-09-26T03:29:11.307Z,96348.84
2022-09-26T03:31:37.744Z,96344.66
2022-09-26T03:34:04.174Z,96351.16
2022-09-26T03:36:32.076Z,96348.78
2022-09-26T03:38:58.425Z,96351.56
2022-09-26T03:41:24.802Z,96357.56
2022-09-26T03:43:51.157Z,96358.69
2022-09-26T03:46:18.234Z,96369.03
2022-09-26T03:48:44.726Z,96366.28
2022-09-26T03:51:13.287Z,96366.19
2022-09-26T03:53:42.249Z,96361.75
2022-09-26T03:56:12.061Z,96352.53
2022-09-26T03:58:39.507Z,96364.19
2022-09-26T04:01:08.057Z,96355.66
2022-09-26T04:03:36.190Z,96349.03
2022-09-26T04:06:03.392Z,96325.72
2022-09-26T04:08:30.331Z,96345.13
2022-09-26T04:11:08.058Z,96337.06
2022-09-26T04:13:50.729Z,96337.31
2022-09-26T04:16:20.209Z,96339.00
2022-09-26T04:18:47.042Z,96341.81
2022-09-26T04:21:14.151Z,96330.03
2022-09-26T04:23:42.363Z,96332.69
2022-09-26T04:26:17.495Z,96337.59
2022-09-26T04:28:49.577Z,96326.34
2022-09-26T04:31:15.980Z,96323.81
2022-09-26T04:33:42.629Z,96328.50
2022-09-26T04:36:12.324Z,96326.81
2022-09-26T04:38:39.249Z,96322.19
2022-09-26T04:41:08.300Z,96323.31
2022-09-26T04:43:35.775Z,96328.06
2022-09-26T04:46:07.467Z,96331.31
2022-09-26T04:48:33.893Z,96324.19
2022-09-26T04:51:05.207Z,96328.47
2022-09-26T04:53:31.673Z,96330.50
2022-09-26T04:55:58.020Z,96327.41
2022-09-26T04:58:24.419Z,96323.22
2022-09-26T05:00:51.100Z,96319.41
2022-09-26T05:03:17.716Z,96317.78
2022-09-26T05:05:47.197Z,96304.91
2022-09-26T05:08:14.573Z,96309.53
2022-09-26T05:10:42.224Z,96306.13
2022-09-26T05:13:09.573Z,96304.28
2022-09-26T05:15:42.701Z,96303.25
2022-09-26T05:18:11.387Z,96295.81
2022-09-26T05:20:38.566Z,96293.91
2022-09-26T05:23:07.303Z,96289.88
2022-09-26T05:25:57.785Z,96291.88
2022-09-26T05:28:25.504Z,96292.88
2022-09-26T05:30:52.650Z,96287.59
2022-09-26T05:33:20.126Z,96282.19
2022-09-26T05:35:53.383Z,96285.63
2022-09-26T05:38:19.747Z,96273.34
2022-09-26T05:40:58.289Z,96280.63
2022-09-26T05:43:29.820Z,96275.28
2022-09-26T05:45:58.837Z,96278.41
2022-09-26T05:48:29.793Z,96281.47
2022-09-26T05:50:56.283Z,96274.31
2022-09-26T05:53:23.348Z,96279.31
2022-09-26T05:55:50.834Z,96271.28
2022-09-26T05:58:20.901Z,96263.13
2022-09-26T06:00:47.934Z,96269.38
2022-09-26T06:03:15.747Z,96252.38
2022-09-26T06:05:42.972Z,96237.34
2022-09-26T06:08:11.015Z,96234.34
2022-09-26T06:10:38.565Z,96219.13
2022-09-26T06:13:05.797Z,96219.03
2022-09-26T06:15:32.186Z,96212.72
2022-09-26T06:18:04.732Z,96207.06
2022-09-26T06:20:33.111Z,96205.41
2022-09-26T06:23:01.613Z,96197.13
2022-09-26T06:25:29.627Z,96204.88
2022-09-26T06:28:00.027Z,96183.03
2022-09-26T06:30:27.096Z,96168.44
2022-09-26T06:32:53.969Z,96125.09
2022-09-26T06:35:21.413Z,96108.84
2022-09-26T06:37:48.284Z,96084.88
2022-09-26T06:40:15.048Z,96112.91
2022-09-26T06:42:41.546Z,96205.72
2022-09-26T06:45:09.740Z,96331.84
2022-09-26T06:47:36.320Z,96402.97
2022-09-26T06:50:02.944Z,96448.91
2022-09-26T06:52:33.958Z,96484.13
2022-09-26T06:55:02.475Z,96541.06
2022-09-26T06:57:30.137Z,96604.28
2022-09-26T06:59:56.992Z,96676.78
2022-09-26T07:02:25.310Z,96746.13
2022-09-26T07:04:52.261Z,96795.81
2022-09-26T07:07:18.633Z,96860.41
2022-09-26T07:09:45.334Z,96912.13
2022-09-26T07:12:15.999Z,96957.41
2022-09-26T07:14:43.248Z,97008.25
2022-09-26T07:17:15.658Z,97039.22
2022-09-26T07:19:42.846Z,97065.63
2022-09-26T07:22:09.766Z,97076.19
2022-09-26T07:24:37.062Z,97082.03
2022-09-26T07:27:03.602Z,97094.13
2022-09-26T07:29:30.501Z,97108.09
2022-09-26T07:31:58.625Z,97119.88
2022-09-26T07:34:25.140Z,97155.22
2022-09-26T07:36:51.939Z,97122.25
2022-09-26T07:39:18.756Z,97119.47
2022-09-26T07:41:46.550Z,97128.91
2022-09-26T07:47:18.685Z,97198.13
2022-09-26T07:50:03.636Z,97298.19
2022-09-26T07:52:30.737Z,97304.16
2022-09-26T07:54:57.102Z,97367.16
2022-09-26T07:57:23.493Z,97388.75
2022-09-26T07:59:50.466Z,97409.16
2022-09-26T08:02:21.716Z,97414.28
2022-09-26T08:04:48.498Z,97430.19
2022-09-26T08:07:15.325Z,97400.97
2022-09-26T08:09:42.353Z,97418.41
2022-09-26T08:12:08.681Z,97383.28
2022-09-26T08:14:35.091Z,97397.22
2022-09-26T08:17:01.442Z,97379.41
2022-09-26T08:19:27.854Z,97389.56
2022-09-26T08:21:54.233Z,97388.03
2022-09-26T08:24:20.977Z,97395.41
2022-09-26T08:26:47.337Z,97419.13
2022-09-26T08:29:14.716Z,97445.50
2022-09-26T08:31:41.352Z,97460.16
2022-09-26T08:34:08.274Z,97489.72
2022-09-26T08:36:37.562Z,97520.53
2022-09-26T08:39:04.756Z,97522.00
2022-09-26T08:41:56.419Z,97636.28
2022-09-26T08:44:36.646Z,97660.81
2022-09-26T08:47:12.328Z,97720.47
2022-09-26T08:49:48.244Z,97759.09
2022-09-26T08:52:23.713Z,97784.34
2022-09-26T08:54:53.021Z,97761.97
2022-09-26T08:57:35.452Z,97763.16
2022-09-26T09:00:24.720Z,97764.25
2022-09-26T09:02:58.145Z,97762.19
2022-09-26T09:05:26.969Z,97774.09
2022-09-26T09:07:56.621Z,97782.69
2022-09-26T09:10:37.710Z,97788.66
2022-09-26T09:13:20.370Z,97781.31
2022-09-26T09:16:04.372Z,97817.69
2022-09-26T09:18:59.706Z,97801.84
2022-09-26T09:21:48.236Z,97809.00
2022-09-26T09:24:48.807Z,97797.97
2022-09-26T09:30:22.336Z,97793.00
2022-09-26T09:32:57.822Z,97819.59
2022-09-26T09:35:39.082Z,97812.13
2022-09-26T09:38:07.578Z,97814.25
2022-09-26T09:40:44.522Z,97841.88
2022-09-26T09:43:26.736Z,97823.59
2022-09-26T09:45:59.029Z,97799.28
2022-09-26T09:48:27.392Z,97793.56
2022-09-26T09:51:18.325Z,97764.78
2022-09-26T09:54:22.188Z,97759.44
2022-09-26T09:57:11.648Z,97802.16
2022-09-26T10:00:02.447Z,97808.56
2022-09-26T10:02:37.446Z,97811.69
2022-09-26T10:05:18.058Z,97825.03
2022-09-26T10:07:45.168Z,97849.72
2022-09-26T10:10:20.980Z,97884.81
2022-09-26T10:12:51.677Z,97879.97
2022-09-26T10:15:22.364Z,97874.69
2022-09-26T10:18:23.353Z,97886.09
2022-09-26T10:20:57.313Z,97888.75
2022-09-26T10:23:33.554Z,97892.66
2022-09-26T10:26:06.271Z,97887.19
2022-09-26T10:28:37.584Z,97882.25
2022-09-26T10:31:10.346Z,97891.41
2022-09-26T10:33:44.204Z,97870.44
2022-09-26T10:36:28.785Z,97878.03
2022-09-26T10:39:35.971Z,97862.63
2022-09-26T10:42:04.123Z,97872.88
2022-09-26T10:44:36.594Z,97885.16
2022-09-26T10:47:08.594Z,97861.09
2022-09-26T10:49:37.349Z,97862.16
2022-09-26T10:52:18.688Z,97872.84
2022-09-26T10:55:15.111Z,97864.28
2022-09-26T10:57:53.788Z,97854.91
2022-09-26T11:00:22.007Z,97860.53
2022-09-26T11:02:52.192Z,97851.06
2022-09-26T11:05:39.044Z,97856.44
2022-09-26T11:08:08.764Z,97843.66
2022-09-26T11:10:36.292Z,97846.72
2022-09-26T11:13:19.965Z,97845.56
2022-09-26T11:16:14.745Z,97848.34
2022-09-26T11:18:41.913Z,97845.56
2022-09-26T11:21:47.081Z,97842.41
2022-09-26T11:24:22.679Z,97846.09
2022-09-26T11:27:27.276Z,97848.03
2022-09-26T11:30:26.228Z,97844.41
2022-09-26T11:32:56.324Z,97840.44
2022-09-26T11:35:33.308Z,97826.09
2022-09-26T11:38:18.763Z,97825.19
2022-09-26T11:41:07.401Z,97835.16
2022-09-26T11:44:01.527Z,97826.69
2022-09-26T11:46:54.471Z,97834.66
2022-09-26T11:49:51.542Z,97822.94
2022-09-26T11:52:26.301Z,97812.28
2022-09-26T11:55:17.732Z,97816.25
2022-09-26T11:58:03.469Z,97811.66
2022-09-26T12:00:41.831Z,97804.59
2022-09-26T12:03:36.009Z,97793.31
2022-09-26T12:06:18.093Z,97798.13
2022-09-26T12:09:03.950Z,97797.53
2022-09-26T12:11:52.866Z,97798.28
2022-09-26T12:14:27.578Z,97785.09
2022-09-26T12:16:58.593Z,97776.94
2022-09-26T12:20:01.292Z,97764.44
2022-09-26T12:22:56.531Z,97764.78
2022-09-26T12:25:40.417Z,97750.00
2022-09-26T12:28:25.575Z,97755.59
2022-09-26T12:30:58.398Z,97753.31
2022-09-26T12:33:58.886Z,97751.28
2022-09-26T12:36:54.421Z,97753.13
2022-09-26T12:39:37.121Z,97745.94
2022-09-26T12:42:25.544Z,97734.88
2022-09-26T12:45:22.586Z,97737.19
2022-09-26T12:48:04.455Z,97734.16
2022-09-26T12:50:48.944Z,97740.00
2022-09-26T12:53:28.847Z,97713.31
2022-09-26T12:56:00.973Z,97730.09
2022-09-26T12:58:46.365Z,97726.25
2022-09-26T13:01:43.619Z,97713.66
2022-09-26T13:04:33.363Z,97721.59
2022-09-26T13:07:19.313Z,97724.06
2022-09-26T13:10:05.029Z,97722.75
2022-09-26T13:12:58.364Z,97717.06
2022-09-26T13:15:49.178Z,97717.22
2022-09-26T13:18:28.267Z,97712.69
2022-09-26T13:21:02.924Z,97699.59
2022-09-26T13:23:34.960Z,97685.22
2022-09-26T13:26:08.830Z,97687.28
2022-09-26T13:29:00.472Z,97685.66
2022-09-26T13:31:40.177Z,97697.94
2022-09-26T13:34:32.509Z,97680.09
2022-09-26T13:36:59.948Z,97674.56
2022-09-26T13:39:48.090Z,97671.28
2022-09-26T13:42:33.381Z,97665.97
2022-09-26T13:45:06.993Z,97659.75
2022-09-26T13:47:33.606Z,97660.97
2022-09-26T13:50:24.889Z,97649.53
2022-09-26T13:53:20.278Z,97639.06
2022-09-26T13:56:29.828Z,97642.16
2022-09-26T13:59:48.808Z,97633.72
2022-09-26T14:02:28.240Z,97631.88
2022-09-26T14:05:18.881Z,97636.81
2022-09-26T14:08:11.832Z,97616.47
2022-09-26T14:10:41.144Z,97603.19
2022-09-26T14:13:10.253Z,97597.88
2022-09-26T14:15:49.038Z,97589.81
2022-09-26T14:18:34.303Z,97604.81
2022-09-26T14:21:17.000Z,97596.59
2022-09-26T14:23:44.616Z,97599.03
2022-09-26T14:26:12.861Z,97594.56
2022-09-26T14:28:46.077Z,97593.94
2022-09-26T14:31:22.047Z,97594.94
2022-09-26T14:33:50.598Z,97583.44
2022-09-26T14:36:26.170Z,97571.78
2022-09-26T14:38:54.475Z,97577.13
2022-09-26T14:41:22.410Z,97569.03
2022-09-26T14:43:51.138Z,97565.81
2022-09-26T14:46:23.105Z,97572.78
2022-09-26T14:48:58.199Z,97562.09
2022-09-26T14:51:27.371Z,97571.97
2022-09-26T14:54:03.499Z,97572.47
2022-09-26T14:56:43.646Z,97558.19
2022-09-26T14:59:16.076Z,97549.97
2022-09-26T15:01:43.923Z,97537.44
2022-09-26T15:04:18.680Z,97521.09
2022-09-26T15:06:52.688Z,97550.84
2022-09-26T15:09:25.844Z,97536.84
2022-09-26T15:11:58.255Z,97542.19
2022-09-26T15:14:49.942Z,97527.66
2022-09-26T15:17:20.254Z,97526.41
2022-09-26T15:19:52.969Z,97522.69
2022-09-26T15:22:24.974Z,97524.81
2022-09-26T15:25:06.478Z,97514.34
2022-09-26T15:27:33.162Z,97529.72
2022-09-26T15:30:16.555Z,97511.88
2022-09-26T15:32:42.982Z,97530.88
2022-09-26T15:35:13.531Z,97511.56
2022-09-26T15:37:40.030Z,97518.53
2022-09-26T15:40:25.345Z,97517.59
2022-09-26T15:43:24.245Z,97516.31
2022-09-26T15:45:59.314Z,97510.03
2022-09-26T15:48:29.009Z,97517.44
2022-09-26T15:51:16.768Z,97509.97
2022-09-26T15:53:58.414Z,97515.03
2022-09-26T15:56:30.620Z,97508.72
2022-09-26T15:59:25.282Z,97509.56
2022-09-26T16:01:52.931Z,97506.53
2022-09-26T16:04:22.568Z,97506.91
2022-09-26T16:06:59.494Z,97488.47
2022-09-26T16:09:33.933Z,97476.63
2022-09-26T16:12:04.086Z,97467.56
2022-09-26T16:14:46.864Z,97448.19
2022-09-26T16:17:32.343Z,97456.91
2022-09-26T16:20:11.690Z,97442.31
2022-09-26T16:22:46.221Z,97433.47
2022-09-26T16:25:15.731Z,97437.00
2022-09-26T16:27:42.823Z,97432.03
2022-09-26T16:30:30.118Z,97431.97
2022-09-26T16:33:02.668Z,97425.41
2022-09-26T16:35:31.639Z,97426.22
2022-09-26T16:38:00.393Z,97422.00
2022-09-26T16:40:28.073Z,97445.75
2022-09-26T16:43:03.147Z,97425.66
2022-09-26T16:45:30.850Z,97423.53
2022-09-26T16:47:57.341Z,97417.00
2022-09-26T16:50:31.277Z,97406.72
2022-09-26T16:52:57.921Z,97412.13
2022-09-26T16:55:26.040Z,97398.78
2022-09-26T16:57:56.739Z,97390.81
2022-09-26T17:00:46.755Z,97394.75
2022-09-26T17:03:31.633Z,97398.19
2022-09-26T17:06:00.152Z,97395.75
2022-09-26T17:08:27.718Z,97389.44
2022-09-26T17:10:56.243Z,97392.41
2022-09-26T17:13:24.879Z,97391.47
2022-09-26T17:15:55.454Z,97381.16
2022-09-26T17:18:29.066Z,97369.66
2022-09-26T17:20:56.753Z,97376.06
2022-09-26T17:23:39.336Z,97371.28
2022-09-26T17:26:07.675Z,97364.72
2022-09-26T17:28:38.697Z,97368.34
2022-09-26T17:31:07.598Z,97351.78
2022-09-26T17:33:40.426Z,97340.44
2022-09-26T17:36:11.026Z,97338.41
2022-09-26T17:38:41.227Z,97324.03
2022-09-26T17:41:12.365Z,97311.38
2022-09-26T17:43:38.906Z,97311.16
2022-09-26T17:46:06.226Z,97308.53
2022-09-26T17:48:33.153Z,97305.66
2022-09-26T17:51:02.135Z,97306.50
2022-09-26T17:53:39.684Z,97290.53
2022-09-26T17:56:06.654Z,97295.88
2022-09-26T17:58:34.436Z,97292.97
2022-09-26T18:01:03.543Z,97293.97
2022-09-26T18:03:34.003Z,97278.03
2022-09-26T18:06:01.526Z,97285.41
2022-09-26T18:08:36.140Z,97275.59
2022-09-26T18:11:05.297Z,97276.84
2022-09-26T18:13:35.506Z,97271.28
2022-09-26T18:16:02.296Z,97269.63
2022-09-26T18:18:30.976Z,97270.03
2022-09-26T18:21:03.382Z,97275.31
2022-09-26T18:23:40.696Z,97265.13
2022-09-26T18:26:10.822Z,97254.66
2022-09-26T18:28:38.859Z,97255.28
2022-09-26T18:31:06.519Z,97247.72
2022-09-26T18:33:37.768Z,97242.63
2022-09-26T18:36:05.121Z,97238.91
2022-09-26T18:38:31.800Z,97242.78
2022-09-26T18:40:58.750Z,97234.66
2022-09-26T18:43:29.720Z,97235.56
2022-09-26T18:45:57.532Z,97219.41
2022-09-26T18:48:31.588Z,97216.66
2022-09-26T18:50:58.811Z,97209.41
2022-09-26T18:53:29.579Z,97196.50
2022-09-26T18:56:14.847Z,97175.13
2022-09-26T18:58:41.230Z,97172.72
2022-09-26T19:01:14.059Z,97172.31
2022-09-26T19:03:45.767Z,97151.53
2022-09-26T19:06:23.070Z,97141.75
2022-09-26T19:09:01.720Z,97134.81
2022-09-26T19:11:29.501Z,97121.78
2022-09-26T19:13:58.567Z,97120.78
2022-09-26T19:16:25.698Z,97116.50
2022-09-26T19:18:52.310Z,97121.84
2022-09-26T19:21:24.251Z,97110.50
2022-09-26T19:23:51.569Z,97105.38
2022-09-26T19:26:29.887Z,97119.06
2022-09-26T19:28:59.194Z,97110.91
2022-09-26T19:31:26.686Z,97102.56
2022-09-26T19:33:53.439Z,97100.28
2022-09-26T19:36:20.796Z,97091.34
2022-09-26T19:38:47.157Z,97079.53
2022-09-26T19:41:13.531Z,97081.19
2022-09-26T19:43:40.011Z,97058.13
2022-09-26T19:46:13.201Z,97056.06
2022-09-26T19:48:42.223Z,97039.75
2022-09-26T19:51:16.793Z,97025.88
2022-09-26T19:53:43.418Z,97011.00
2022-09-26T19:56:10.770Z,97016.31
2022-09-26T19:58:37.203Z,97008.56
2022-09-26T20:01:14.637Z,96992.69
2022-09-26T20:03:42.707Z,96977.81
2022-09-26T20:06:25.324Z,96949.06
2022-09-26T20:08:58.919Z,96915.19
2022-09-26T20:11:27.643Z,96857.31
2022-09-26T20:14:12.642Z,96755.78
2022-09-26T20:16:42.480Z,96691.78
2022-09-26T20:19:14.295Z,96636.75
2022-09-26T20:21:40.703Z,96580.13
2022-09-26T20:24:13.441Z,96517.81
2022-09-26T20:26:40.851Z,96457.16
2022-09-26T20:29:12.979Z,96357.41
2022-09-26T20:31:40.339Z,96247.78
2022-09-26T20:34:06.736Z,96001.13
2022-09-26T20:36:35.702Z,95790.91
2022-09-26T20:39:05.490Z,95617.34
2022-09-26T20:41:35.799Z,95446.38
2022-09-26T20:44:06.316Z,95308.50
2022-09-26T20:46:39.033Z,95268.47
2022-09-26T20:49:12.626Z,95209.78
2022-09-26T20:51:39.221Z,95221.56
2022-09-26T20:54:14.682Z,95256.63
2022-09-26T20:56:41.158Z,95266.53
2022-09-26T20:59:08.427Z,95301.47
2022-09-26T21:01:34.843Z,95306.44
2022-09-26T21:04:01.640Z,95304.25
2022-09-26T21:06:33.761Z,95304.00
2022-09-26T21:09:00.566Z,95309.75
2022-09-26T21:11:27.026Z,95291.69
2022-09-26T21:13:53.377Z,95300.56
2022-09-26T21:16:21.726Z,95285.03
2022-09-26T21:18:51.385Z,95266.53
2022-09-26T21:21:26.758Z,95285.34
2022-09-26T21:23:54.039Z,95300.47
2022-09-26T21:26:23.101Z,95282.75
2022-09-26T21:28:51.073Z,95282.97
2022-09-26T21:31:22.160Z,95291.59
2022-09-26T21:33:49.436Z,95290.44
2022-09-26T21:36:15.916Z,95281.47
2022-09-26T21:38:43.909Z,95281.47
2022-09-26T21:41:11.968Z,95271.56
2022-09-26T21:43:42.875Z,95273.19
2022-09-26T21:46:09.613Z,95289.31
2022-09-26T21:48:36.404Z,95284.47
2022-09-26T21:51:04.003Z,95275.13
2022-09-26T21:53:45.768Z,95279.91
2022-09-26T21:56:25.560Z,95286.56
2022-09-26T21:58:52.659Z,95275.38
2022-09-26T22:01:19.086Z,95275.63
2022-09-26T22:03:45.513Z,95275.28
2022-09-26T22:06:11.923Z,95273.47
2022-09-26T22:08:39.828Z,95260.38
2022-09-26T22:11:09.669Z,95252.19
2022-09-26T22:13:37.562Z,95249.91
2022-09-26T22:16:09.575Z,95259.09
2022-09-26T22:18:37.186Z,95253.81
2022-09-26T22:21:04.660Z,95259.22
2022-09-26T22:23:32.353Z,95248.06
2022-09-26T22:25:58.948Z,95257.13
2022-09-26T22:28:26.103Z,95246.91
2022-09-26T22:30:54.532Z,95254.59
2022-09-26T22:33:22.277Z,95246.09
2022-09-26T22:35:49.776Z,95252.09
2022-09-26T22:38:16.405Z,95247.63
2022-09-26T22:40:42.935Z,95249.00
2022-09-26T22:43:09.451Z,95253.22
2022-09-26T22:45:36.001Z,95240.81
2022-09-26T22:48:02.371Z,95237.34
2022-09-26T22:50:28.737Z,95238.72
2022-09-26T22:52:55.094Z,95229.91
2022-09-26T22:55:21.482Z,95231.59
2022-09-26T22:57:51.143Z,95243.34
2022-09-26T23:00:17.860Z,95226.00
2022-09-26T23:02:44.322Z,95218.44
2022-09-26T23:05:10.731Z,95214.72
2022-09-26T23:07:37.146Z,95203.03
2022-09-26T23:10:03.605Z,95209.09
2022-09-26T23:12:31.667Z,95207.84
2022-09-26T23:14:57.999Z,95192.34
2022-09-26T23:17:24.451Z,95182.25
2022-09-26T23:19:51.168Z,95185.00
2022-09-26T23:22:17.533Z,95180.28
2022-09-26T23:24:44.066Z,95174.06
2022-09-26T23:27:10.431Z,95169.59
2022-09-26T23:29:37.505Z,95160.63
2022-09-26T23:32:03.925Z,95161.56
2022-09-26T23:34:30.265Z,95161.47
2022-09-26T23:36:56.612Z,95154.66
2022-09-26T23:39:23.057Z,95158.34
2022-09-26T23:41:49.426Z,95151.44
2022-09-26T23:44:15.768Z,95160.41
2022-09-26T23:46:42.191Z,95155.63
2022-09-26T23:49:08.583Z,95166.19
2022-09-26T23:51:35.079Z,95154.00
2022-09-26T23:54:02.651Z,95151.72
2022-09-26T23:56:29.029Z,95149.97
2022-09-26T23:58:56.457Z,95146.88
